Time;durP1;ratioP1;P1;durP2;ratioP2;P2;SDS_P1;SDS_P2;PMS_P1;PMS_P2;Temp;Humidity;BMP_temperature;BMP_pressure;BME280_temperature;BME280_humidity;BME280_pressure;Samples;Min_cycle;Max_cycle;Signal;HPM_P1;HPM_P2
2022/08/05 00:01:41;;;;;;;4.45;2.20;;;29.40;70.80;;;;;;5033177;28;20032;-68
2022/08/05 00:04:07;;;;;;;7.57;2.55;;;29.40;71.50;;;;;;5034195;28;20095;-67
2022/08/05 00:06:33;;;;;;;7.75;2.90;;;29.40;71.40;;;;;;5033859;28;20029;-69
2022/08/05 00:08:59;;;;;;;4.75;2.25;;;29.40;71.80;;;;;;5034327;28;20022;-68
2022/08/05 00:11:26;;;;;;;8.80;2.17;;;29.40;72.10;;;;;;5034152;28;20124;-68
2022/08/05 00:13:52;;;;;;;5.00;2.22;;;29.40;72.60;;;;;;5032955;28;20025;-68
2022/08/05 00:16:18;;;;;;;6.20;2.22;;;29.40;72.80;;;;;;5033977;28;20482;-68
2022/08/05 00:18:48;;;;;;;6.28;2.45;;;29.30;73.00;;;;;;5034456;28;20502;-68
2022/08/05 00:21:15;;;;;;;7.05;2.30;;;29.30;73.20;;;;;;5034165;28;20489;-68
2022/08/05 00:23:43;;;;;;;5.13;2.17;;;29.30;73.30;;;;;;5033832;28;20057;-68
2022/08/05 00:26:10;;;;;;;6.78;2.53;;;29.20;73.90;;;;;;5033741;28;20029;-70
2022/08/05 00:28:37;;;;;;;9.80;2.58;;;29.20;74.20;;;;;;5033707;28;20391;-68
2022/08/05 00:31:04;;;;;;;5.38;2.92;;;29.20;74.00;;;;;;5033880;28;20026;-71
2022/08/05 00:33:30;;;;;;;6.65;2.35;;;29.20;74.70;;;;;;5032731;28;20026;-68
2022/08/05 00:35:57;;;;;;;4.32;2.28;;;29.10;74.50;;;;;;5033466;28;20083;-68
2022/08/05 00:38:23;;;;;;;3.88;2.22;;;29.20;74.50;;;;;;5033716;28;20099;-68
2022/08/05 00:40:51;;;;;;;7.72;2.30;;;29.20;75.70;;;;;;5033553;28;20125;-68
2022/08/05 00:43:18;;;;;;;5.60;2.40;;;29.10;74.90;;;;;;5032104;28;20433;-68
2022/08/05 00:45:44;;;;;;;4.78;2.40;;;29.20;75.00;;;;;;5033294;28;20042;-67
2022/08/05 00:48:12;;;;;;;8.18;2.00;;;29.20;75.20;;;;;;5032214;28;20018;-68
2022/08/05 00:50:44;;;;;;;4.63;2.40;;;29.20;75.30;;;;;;5033340;28;20418;-68
2022/08/05 00:53:10;;;;;;;6.57;2.22;;;29.20;75.70;;;;;;5033533;28;20013;-69
2022/08/05 00:55:36;;;;;;;3.97;2.38;;;29.20;75.80;;;;;;5033348;28;20434;-67
2022/08/05 00:58:02;;;;;;;5.85;2.42;;;29.20;76.20;;;;;;5033407;28;20033;-68
2022/08/05 01:00:29;;;;;;;4.55;2.40;;;29.20;76.40;;;;;;5033298;28;20100;-70
2022/08/05 01:02:56;;;;;;;4.80;2.60;;;29.10;76.80;;;;;;5031837;28;20053;-69
2022/08/05 01:05:23;;;;;;;3.85;2.20;;;29.10;77.00;;;;;;5033281;28;20068;-71
2022/08/05 01:07:51;;;;;;;6.88;2.67;;;29.10;77.30;;;;;;5033441;28;20079;-68
2022/08/05 01:10:20;;;;;;;8.75;3.10;;;29.10;76.50;;;;;;5033204;28;20091;-68
2022/08/05 01:12:54;;;;;;;4.10;2.38;;;29.10;78.20;;;;;;5033297;28;20033;-68
2022/08/05 01:15:24;;;;;;;5.50;2.17;;;29.10;78.30;;;;;;5033023;28;20029;-68
2022/08/05 01:17:55;;;;;;;5.95;2.55;;;29.10;78.60;;;;;;5033254;28;20024;-68
2022/08/05 01:20:29;;;;;;;4.88;2.78;;;29.10;79.00;;;;;;5033306;28;20108;-69
2022/08/05 01:22:58;;;;;;;4.00;2.70;;;29.00;79.10;;;;;;5033117;28;20100;-67
2022/08/05 01:25:48;;;;;;;4.88;2.30;;;29.10;78.40;;;;;;5032825;28;20102;-67
2022/08/05 01:28:25;;;;;;;4.72;2.30;;;29.10;79.70;;;;;;5031546;28;20026;-68
2022/08/05 01:31:03;;;;;;;4.60;2.55;;;29.00;78.60;;;;;;5033063;28;20021;-68
2022/08/05 01:33:42;;;;;;;7.28;2.35;;;29.10;79.50;;;;;;5033079;28;20029;-68
2022/08/05 01:36:14;;;;;;;6.07;2.25;;;29.10;79.90;;;;;;5031386;28;20030;-68
2022/08/05 01:38:41;;;;;;;5.00;2.65;;;29.10;80.80;;;;;;5032794;28;20028;-69
2022/08/05 01:41:07;;;;;;;9.70;2.55;;;29.10;80.70;;;;;;5032945;28;20040;-76
2022/08/05 01:43:34;;;;;;;5.75;2.92;;;29.00;80.90;;;;;;5032829;28;20021;-71
2022/08/05 01:46:00;;;;;;;6.00;2.70;;;29.00;81.00;;;;;;5032531;28;20038;-69
2022/08/05 01:48:29;;;;;;;5.10;2.88;;;29.00;81.30;;;;;;5032867;28;20032;-75
2022/08/05 01:50:56;;;;;;;4.50;2.78;;;29.00;81.40;;;;;;5032710;28;20109;-75
2022/08/05 01:53:23;;;;;;;6.22;2.78;;;29.00;81.50;;;;;;5033374;28;20030;-69
2022/08/05 01:55:51;;;;;;;6.75;2.95;;;29.00;81.80;;;;;;5032820;28;20044;-80
2022/08/05 01:58:18;;;;;;;5.60;2.70;;;28.90;82.10;;;;;;5032775;28;20064;-67
2022/08/05 02:00:49;;;;;;;5.22;3.13;;;28.90;81.90;;;;;;5031451;28;20075;-67
2022/08/05 02:03:50;;;;;;;5.90;3.10;;;29.00;82.20;;;;;;5036485;28;20092;-68
2022/08/05 02:06:17;;;;;;;7.95;2.60;;;28.90;82.30;;;;;;5034666;28;20033;-68
2022/08/05 02:08:44;;;;;;;4.45;2.80;;;28.90;82.30;;;;;;5035914;28;20121;-68
2022/08/05 02:11:12;;;;;;;7.03;3.08;;;28.90;82.00;;;;;;5036537;28;20028;-67
2022/08/05 02:13:51;;;;;;;8.35;3.20;;;28.90;81.90;;;;;;5035123;28;20558;-68
2022/08/05 02:16:27;;;;;;;5.40;2.65;;;28.90;81.50;;;;;;5035031;28;20022;-68
2022/08/05 02:19:13;;;;;;;8.23;2.70;;;28.90;80.60;;;;;;5036216;28;20021;-68
2022/08/05 02:21:53;;;;;;;4.65;2.40;;;28.80;80.80;;;;;;5036152;28;20108;-68
2022/08/05 02:24:25;;;;;;;5.40;2.85;;;28.70;80.70;;;;;;5036407;28;20486;-67
2022/08/05 02:26:56;;;;;;;7.63;2.67;;;28.70;80.40;;;;;;5034961;28;20053;-69
2022/08/05 02:29:25;;;;;;;5.55;2.80;;;28.70;80.40;;;;;;5034582;28;20029;-69
2022/08/05 02:31:54;;;;;;;7.35;2.83;;;28.60;79.20;;;;;;5036255;28;20051;-69
2022/08/05 02:34:22;;;;;;;4.13;2.42;;;28.60;79.30;;;;;;5036046;28;20025;-71
2022/08/05 02:36:54;;;;;;;6.22;2.85;;;28.60;78.80;;;;;;5035726;28;20036;-71
2022/08/05 02:39:22;;;;;;;4.28;2.17;;;28.60;77.40;;;;;;5036054;28;20462;-69
2022/08/05 02:41:50;;;;;;;6.20;2.47;;;28.60;77.30;;;;;;5034494;28;20081;-68
2022/08/05 02:44:17;;;;;;;6.60;2.65;;;28.60;76.00;;;;;;5036140;28;20052;-69
2022/08/05 02:46:46;;;;;;;6.03;2.50;;;28.60;74.90;;;;;;5035724;28;20037;-68
2022/08/05 02:49:15;;;;;;;7.28;3.03;;;28.60;74.00;;;;;;5035485;28;20075;-68
2022/08/05 02:51:42;;;;;;;5.65;2.88;;;28.60;72.60;;;;;;5035897;28;20021;-69
2022/08/05 02:54:10;;;;;;;7.07;3.05;;;28.60;71.80;;;;;;5035991;28;20471;-69
2022/08/05 02:56:36;;;;;;;5.82;2.63;;;28.60;70.70;;;;;;5035561;28;20391;-67
2022/08/05 02:59:04;;;;;;;5.65;2.47;;;28.60;70.30;;;;;;5035610;28;20498;-67
2022/08/05 03:01:31;;;;;;;6.90;2.88;;;28.60;69.30;;;;;;5033900;28;20032;-69
2022/08/05 03:04:02;;;;;;;5.22;2.97;;;28.60;68.80;;;;;;5035352;28;20030;-68
2022/08/05 03:06:28;;;;;;;6.78;3.15;;;28.60;68.10;;;;;;5033739;28;20033;-68
2022/08/05 03:08:54;;;;;;;5.97;2.78;;;28.50;67.60;;;;;;5035266;28;20026;-68
2022/08/05 03:11:22;;;;;;;4.70;3.05;;;28.50;67.40;;;;;;5035126;28;20028;-68
2022/08/05 03:13:49;;;;;;;8.02;2.92;;;28.50;67.20;;;;;;5035145;28;20025;-68
2022/08/05 03:16:15;;;;;;;5.72;2.85;;;28.50;66.70;;;;;;5034900;28;20071;-67
2022/08/05 03:18:41;;;;;;;9.40;2.65;;;28.50;66.40;;;;;;5035118;28;20438;-68
2022/08/05 03:21:07;;;;;;;5.35;2.60;;;28.50;66.10;;;;;;5035077;28;20071;-72
2022/08/05 03:23:33;;;;;;;8.73;2.72;;;28.50;65.40;;;;;;5034940;28;20029;-69
2022/08/05 03:26:00;;;;;;;8.05;2.90;;;28.40;65.20;;;;;;5035238;28;20043;-70
2022/08/05 03:28:26;;;;;;;7.28;2.58;;;28.40;65.30;;;;;;5035462;28;20018;-73
2022/08/05 03:30:53;;;;;;;8.43;2.60;;;28.30;64.80;;;;;;5033850;28;20441;-69
2022/08/05 03:33:20;;;;;;;5.78;2.60;;;28.40;64.80;;;;;;5034908;28;20096;-69
2022/08/05 03:35:47;;;;;;;9.95;3.47;;;28.30;64.60;;;;;;5033270;28;20452;-70
2022/08/05 03:38:13;;;;;;;7.10;2.72;;;28.30;64.50;;;;;;5034529;28;20498;-70
2022/08/05 03:40:43;;;;;;;6.47;2.50;;;28.20;64.40;;;;;;5034399;28;20060;-69
2022/08/05 03:43:09;;;;;;;7.72;2.63;;;28.20;64.10;;;;;;5034495;28;20371;-74
2022/08/05 03:45:35;;;;;;;7.03;2.47;;;28.20;63.50;;;;;;5034340;28;20090;-76
2022/08/05 03:48:00;;;;;;;5.28;2.67;;;28.30;62.60;;;;;;5034824;28;20021;-69
2022/08/05 03:50:42;;;;;;;6.32;2.60;;;28.20;61.70;;;;;;5034460;28;20041;-74
2022/08/05 03:53:12;;;;;;;7.60;2.58;;;28.20;60.80;;;;;;5034590;28;20030;-76
2022/08/05 03:55:45;;;;;;;6.00;2.80;;;28.20;60.90;;;;;;5034649;28;20072;-78
2022/08/05 03:58:15;;;;;;;7.65;2.60;;;28.30;60.50;;;;;;5034339;28;20096;-72
2022/08/05 04:00:44;;;;;;;6.20;2.17;;;28.30;58.60;;;;;;5033999;28;20410;-69
2022/08/05 04:03:12;;;;;;;6.55;3.40;;;28.20;59.30;;;;;;5032770;28;20029;-73
2022/08/05 04:05:39;;;;;;;6.07;3.05;;;28.20;59.40;;;;;;5033980;28;20502;-74
2022/08/05 04:08:08;;;;;;;7.97;2.83;;;28.20;59.00;;;;;;5033998;28;20097;-73
2022/08/05 04:10:34;;;;;;;8.85;3.17;;;28.30;58.70;;;;;;5033958;28;20394;-71
2022/08/05 04:13:00;;;;;;;13.10;2.80;;;28.30;58.50;;;;;;5033864;28;20013;-73
2022/08/05 04:15:27;;;;;;;9.98;3.40;;;28.20;58.20;;;;;;5033806;28;20035;-72
2022/08/05 04:17:54;;;;;;;9.63;3.10;;;28.20;58.30;;;;;;5033874;28;20068;-69
2022/08/05 04:20:22;;;;;;;7.22;3.60;;;28.20;58.30;;;;;;5033829;28;20052;-69
2022/08/05 04:22:48;;;;;;;9.00;3.25;;;28.20;58.40;;;;;;5033650;28;20026;-68
2022/08/05 04:25:14;;;;;;;7.32;3.10;;;28.20;58.30;;;;;;5033004;28;20402;-72
2022/08/05 04:27:40;;;;;;;9.77;3.83;;;28.10;58.10;;;;;;5033731;28;20022;-69
2022/08/05 04:30:07;;;;;;;7.63;3.17;;;28.10;58.30;;;;;;5033419;28;20029;-69
2022/08/05 04:32:33;;;;;;;9.55;3.60;;;28.00;58.40;;;;;;5033503;28;20076;-68
2022/08/05 04:34:59;;;;;;;8.43;3.45;;;27.90;58.40;;;;;;5032248;28;20017;-68
2022/08/05 04:37:26;;;;;;;7.72;3.35;;;27.90;58.50;;;;;;5031977;28;20111;-70
2022/08/05 04:39:52;;;;;;;10.25;4.40;;;28.00;58.40;;;;;;5033297;28;20447;-68
2022/08/05 04:42:18;;;;;;;7.43;3.35;;;28.00;58.60;;;;;;5032959;28;20124;-69
2022/08/05 04:44:44;;;;;;;6.43;2.90;;;28.10;58.30;;;;;;5032950;28;20048;-70
2022/08/05 04:47:09;;;;;;;9.10;3.42;;;28.10;58.40;;;;;;5033292;28;20143;-70
2022/08/05 04:49:39;;;;;;;10.68;3.60;;;28.10;58.30;;;;;;5033030;28;20040;-74
2022/08/05 04:52:05;;;;;;;9.50;3.78;;;28.10;57.90;;;;;;5032912;28;20096;-69
2022/08/05 04:54:31;;;;;;;7.78;3.33;;;28.00;58.40;;;;;;5032811;28;20022;-73
2022/08/05 04:56:57;;;;;;;7.00;3.53;;;28.00;58.30;;;;;;5032888;28;20032;-74
2022/08/05 04:59:23;;;;;;;6.80;3.58;;;28.10;58.40;;;;;;5031989;28;20079;-77
2022/08/05 05:01:50;;;;;;;12.75;3.70;;;28.10;58.50;;;;;;5032930;28;20029;-77
2022/08/05 05:04:16;;;;;;;9.00;3.42;;;28.10;58.50;;;;;;5031875;28;20409;-81
2022/08/05 05:06:42;;;;;;;8.35;3.00;;;28.10;58.60;;;;;;5031429;28;20099;-81
2022/08/05 05:09:10;;;;;;;10.60;4.03;;;28.10;58.80;;;;;;5032815;28;20113;-75
2022/08/05 05:11:36;;;;;;;7.65;3.25;;;28.10;58.90;;;;;;5032703;28;20033;-76
2022/08/05 05:14:02;;;;;;;11.38;3.42;;;28.10;58.90;;;;;;5032716;28;20029;-79
2022/08/05 05:16:30;;;;;;;9.70;3.20;;;28.10;58.90;;;;;;5032727;28;20060;-77
2022/08/05 05:19:00;;;;;;;11.52;3.50;;;28.20;58.80;;;;;;5035321;28;20053;-73
2022/08/05 05:21:26;;;;;;;8.60;3.20;;;28.20;58.80;;;;;;5036154;28;20022;-74
2022/08/05 05:23:52;;;;;;;6.32;2.90;;;28.20;59.40;;;;;;5032981;28;20168;-81
2022/08/05 05:26:19;;;;;;;7.50;2.42;;;28.30;59.40;;;;;;5032385;28;20033;-75
2022/08/05 05:28:44;;;;;;;10.80;2.88;;;28.40;59.30;;;;;;5034024;28;20050;-75
2022/08/05 05:31:10;;;;;;;15.27;3.55;;;28.60;59.00;;;;;;5032702;28;20030;-79
2022/08/05 05:33:36;;;;;;;13.77;3.35;;;28.80;58.70;;;;;;5031243;28;20422;-76
2022/08/05 05:36:01;;;;;;;11.82;3.40;;;29.10;58.30;;;;;;5032531;28;20083;-69
2022/08/05 05:38:32;;;;;;;12.18;3.30;;;29.40;57.50;;;;;;5036505;28;20518;-71
2022/08/05 05:41:00;;;;;;;12.45;3.30;;;29.70;56.90;;;;;;5036438;28;20049;-69
2022/08/05 05:43:26;;;;;;;5.88;3.15;;;30.00;55.10;;;;;;5036456;28;20053;-67
2022/08/05 05:45:53;;;;;;;9.02;3.30;;;30.30;55.70;;;;;;5036272;28;20033;-69
2022/08/05 05:48:19;;;;;;;8.98;3.15;;;30.50;53.70;;;;;;5035086;28;20018;-68
2022/08/05 05:50:52;;;;;;;9.13;3.17;;;30.70;54.80;;;;;;5036075;28;20041;-69
2022/08/05 05:53:22;;;;;;;;;;;30.70;53.00;;;;;;5036432;28;20018;-69
2022/08/05 05:55:48;;;;;;;7.18;2.72;;;30.90;54.30;;;;;;5036051;28;19905;-68
2022/08/05 05:58:14;;;;;;;12.43;3.20;;;31.20;54.40;;;;;;5034949;28;20152;-72
2022/08/05 06:00:39;;;;;;;10.63;3.58;;;31.40;53.50;;;;;;5036110;28;20197;-69
2022/08/05 06:03:05;;;;;;;12.32;3.45;;;31.40;53.50;;;;;;5036142;28;20028;-72
2022/08/05 06:05:33;;;;;;;14.68;4.03;;;31.50;53.40;;;;;;5035129;28;20057;-74
2022/08/05 06:07:58;;;;;;;7.07;3.10;;;31.60;52.10;;;;;;5036037;28;20064;-77
2022/08/05 06:10:24;;;;;;;8.95;2.92;;;31.70;53.10;;;;;;5036753;28;20026;-77
2022/08/05 06:12:50;;;;;;;19.83;3.15;;;31.80;52.80;;;;;;5036650;28;20501;-80
2022/08/05 06:15:18;;;;;;;11.15;2.90;;;31.80;52.70;;;;;;5035458;28;20499;-80
2022/08/05 06:17:44;;;;;;;12.52;3.08;;;32.00;51.70;;;;;;5038055;28;20029;-84
2022/08/05 06:20:10;;;;;;;10.80;3.05;;;32.20;52.30;;;;;;5037420;28;20053;-78
2022/08/05 06:22:36;;;;;;;10.75;3.35;;;32.40;51.50;;;;;;5037308;28;20101;-77
2022/08/05 06:25:04;;;;;;;9.27;3.10;;;32.40;51.60;;;;;;5035803;28;20104;-74
2022/08/05 06:27:30;;;;;;;15.05;3.15;;;32.50;51.80;;;;;;5036513;28;20022;-76
2022/08/05 06:29:56;;;;;;;10.55;3.08;;;32.50;52.10;;;;;;5036577;28;20017;-79
2022/08/05 06:32:23;;;;;;;8.15;2.92;;;32.60;52.10;;;;;;5037054;28;20048;-80
2022/08/05 06:34:49;;;;;;;9.88;3.30;;;32.90;51.80;;;;;;5036872;28;20064;-85
2022/08/05 06:37:15;;;;;;;12.95;3.15;;;32.90;51.80;;;;;;5039885;28;20037;-84
2022/08/05 06:39:41;;;;;;;15.10;2.88;;;33.10;51.40;;;;;;5037411;28;20021;-86
2022/08/05 06:42:08;;;;;;;12.13;3.53;;;33.20;51.20;;;;;;5035965;28;20053;-72
2022/08/05 06:44:34;;;;;;;10.63;3.40;;;33.30;50.20;;;;;;5035820;28;20091;-73
2022/08/05 06:46:59;;;;;;;9.15;3.15;;;33.40;51.30;;;;;;5035226;28;20467;-73
2022/08/05 06:49:26;;;;;;;11.20;3.35;;;33.60;51.10;;;;;;5036120;28;20029;-73
2022/08/05 06:51:52;;;;;;;11.73;3.08;;;33.80;51.70;;;;;;5035183;28;20412;-70
2022/08/05 06:54:17;;;;;;;8.30;2.67;;;34.00;52.60;;;;;;5035552;28;20018;-73
2022/08/05 06:56:43;;;;;;;6.55;2.60;;;34.20;53.50;;;;;;5035609;28;20088;-76
2022/08/05 06:59:13;;;;;;;9.35;3.20;;;34.30;53.40;;;;;;5033836;28;20037;-70
2022/08/05 07:01:39;;;;;;;10.27;3.20;;;34.40;53.70;;;;;;5033695;28;20033;-70
2022/08/05 07:04:05;;;;;;;12.05;2.83;;;34.50;53.30;;;;;;5035951;28;20025;-71
2022/08/05 07:06:30;;;;;;;16.83;3.10;;;34.40;52.80;;;;;;5035508;28;20042;-72
2022/08/05 07:09:01;;;;;;;10.18;2.97;;;34.40;52.80;;;;;;5035219;28;20018;-71
2022/08/05 07:11:27;;;;;;;8.02;2.58;;;34.50;50.80;;;;;;5035412;28;20029;-71
2022/08/05 07:16:49;;;;;;;16.55;3.58;;;34.60;50.70;;;;;;5035351;28;20087;-70
2022/08/05 07:19:16;;;;;;;10.95;3.00;;;34.60;50.40;;;;;;5019094;28;20037;-71
2022/08/05 07:21:51;;;;;;;18.80;3.65;;;34.80;50.90;;;;;;5036002;28;20022;-74
2022/08/05 07:24:17;;;;;;;12.05;2.90;;;34.80;50.40;;;;;;5035899;28;20029;-73
2022/08/05 07:26:44;;;;;;;8.57;2.95;;;34.90;50.60;;;;;;5032941;28;20425;-72
2022/08/05 07:29:12;;;;;;;12.32;3.40;;;34.90;50.80;;;;;;5034534;28;20022;-75
2022/08/05 07:31:38;;;;;;;12.23;2.78;;;34.90;50.30;;;;;;5034410;28;20095;-74
2022/08/05 07:34:06;;;;;;;8.02;3.00;;;34.90;50.40;;;;;;5034317;28;20040;-78
2022/08/05 07:36:33;;;;;;;8.45;3.40;;;34.80;50.30;;;;;;5034021;28;20021;-74
2022/08/05 07:39:00;;;;;;;14.50;2.85;;;34.70;50.30;;;;;;5033952;28;20121;-73
2022/08/05 07:41:26;;;;;;;4.72;2.30;;;34.70;50.30;;;;;;5034106;28;20045;-75
2022/08/05 07:43:53;;;;;;;5.57;2.63;;;34.80;50.70;;;;;;5034116;28;20028;-75
2022/08/05 07:46:18;;;;;;;10.90;2.95;;;34.70;50.40;;;;;;5034056;28;20065;-77
2022/08/05 07:48:44;;;;;;;9.27;2.75;;;34.70;50.00;;;;;;5034446;28;20060;-73
2022/08/05 07:51:10;;;;;;;10.57;2.85;;;34.80;49.90;;;;;;5034140;28;20022;-74
2022/08/05 07:53:36;;;;;;;10.63;2.80;;;34.70;50.00;;;;;;5034215;28;20033;-75
2022/08/05 07:56:03;;;;;;;16.98;3.22;;;34.60;50.30;;;;;;5034055;28;20041;-75
2022/08/05 07:58:29;;;;;;;8.48;2.80;;;34.50;49.90;;;;;;5033291;28;20096;-74
2022/08/05 08:00:55;;;;;;;8.02;2.50;;;34.40;49.60;;;;;;5033155;28;20117;-73
2022/08/05 08:03:20;;;;;;;6.45;2.30;;;34.50;50.80;;;;;;5033808;28;20021;-78
2022/08/05 08:05:49;;;;;;;6.90;2.88;;;34.40;48.80;;;;;;5033491;28;20522;-72
2022/08/05 08:08:16;;;;;;;8.20;2.33;;;34.30;48.90;;;;;;5033683;28;20200;-74
2022/08/05 08:10:42;;;;;;;9.48;2.55;;;34.30;48.50;;;;;;5032306;28;20021;-74
2022/08/05 08:13:07;;;;;;;9.43;2.90;;;34.30;48.70;;;;;;5033426;28;20458;-74
2022/08/05 08:15:33;;;;;;;7.70;2.78;;;34.30;48.60;;;;;;5031985;28;20112;-74
2022/08/05 08:17:59;;;;;;;8.23;2.90;;;34.20;48.80;;;;;;5033360;28;20453;-75
2022/08/05 08:20:25;;;;;;;8.43;2.72;;;34.20;48.80;;;;;;5033514;28;20029;-75
2022/08/05 08:22:56;;;;;;;7.63;3.03;;;34.10;50.10;;;;;;5032013;28;20026;-74
2022/08/05 08:25:23;;;;;;;7.28;3.05;;;34.00;48.50;;;;;;5033397;28;20033;-74
2022/08/05 08:27:48;;;;;;;8.77;2.83;;;33.90;49.40;;;;;;5033303;28;20030;-73
2022/08/05 08:30:15;;;;;;;9.82;2.75;;;33.70;49.00;;;;;;5033098;28;20026;-74
2022/08/05 08:32:41;;;;;;;7.95;2.90;;;33.70;48.90;;;;;;5033319;28;20026;-74
2022/08/05 08:35:07;;;;;;;7.18;2.60;;;33.70;48.90;;;;;;5032887;28;20079;-74
2022/08/05 08:37:33;;;;;;;9.38;2.60;;;33.50;49.70;;;;;;5031630;28;20378;-73
2022/08/05 08:39:59;;;;;;;7.28;2.55;;;33.40;49.30;;;;;;5032817;28;20025;-76
2022/08/05 08:42:25;;;;;;;8.43;2.45;;;33.30;49.40;;;;;;5014746;28;20061;-74
2022/08/05 08:44:53;;;;;;;4.50;2.17;;;33.20;49.90;;;;;;5032877;28;20048;-74
2022/08/05 08:47:24;;;;;;;3.80;1.85;;;33.20;48.70;;;;;;5033744;28;20025;-79
2022/08/05 08:49:54;;;;;;;5.03;2.10;;;33.00;49.70;;;;;;5032215;28;20487;-80
2022/08/05 08:52:23;;;;;;;5.97;2.00;;;33.00;49.30;;;;;;5033024;28;20030;-77
2022/08/05 08:54:52;;;;;;;4.53;2.15;;;32.90;48.90;;;;;;5033085;28;20049;-75
2022/08/05 08:57:18;;;;;;;5.57;2.17;;;32.90;49.00;;;;;;5033208;28;20030;-76
2022/08/05 08:59:44;;;;;;;7.05;2.55;;;32.90;48.00;;;;;;5032995;28;20028;-79
2022/08/05 09:02:10;;;;;;;10.77;2.65;;;32.90;49.00;;;;;;5035078;28;20049;-82
2022/08/05 09:04:37;;;;;;;10.75;2.53;;;32.90;47.70;;;;;;5032606;28;20028;-83
2022/08/05 09:07:05;;;;;;;6.50;2.70;;;32.70;48.90;;;;;;5032379;28;20064;-73
2022/08/05 09:09:32;;;;;;;16.92;3.10;;;32.70;48.80;;;;;;5032254;28;20065;-73
2022/08/05 09:11:57;;;;;;;9.90;2.72;;;32.80;48.50;;;;;;5032266;28;20108;-73
2022/08/05 09:14:23;;;;;;;6.72;2.40;;;32.90;48.80;;;;;;5032302;28;20499;-74
2022/08/05 09:16:50;;;;;;;7.57;2.40;;;32.90;47.70;;;;;;5032094;28;20026;-73
2022/08/05 09:19:16;;;;;;;8.57;2.70;;;33.00;49.30;;;;;;5032439;28;20492;-74
2022/08/05 09:21:42;;;;;;;6.22;2.08;;;33.10;47.70;;;;;;5032637;28;20065;-75
2022/08/05 09:24:08;;;;;;;6.93;2.60;;;33.10;47.50;;;;;;5032179;28;20030;-79
2022/08/05 09:26:38;;;;;;;6.40;2.40;;;33.10;47.80;;;;;;5032114;28;20084;-74
2022/08/05 09:29:06;;;;;;;7.43;2.80;;;33.00;47.40;;;;;;5032225;28;20497;-74
2022/08/05 09:31:33;;;;;;;6.53;2.78;;;33.00;48.60;;;;;;5032218;28;20045;-73
2022/08/05 09:34:08;;;;;;;7.15;2.50;;;33.10;47.70;;;;;;5032624;28;20045;-75
2022/08/05 09:36:52;;;;;;;6.55;2.15;;;33.10;47.50;;;;;;5031822;28;20021;-77
2022/08/05 09:39:18;;;;;;;10.13;2.70;;;33.20;48.60;;;;;;5032024;28;20394;-74
2022/08/05 09:41:59;;;;;;;6.70;2.00;;;33.30;47.30;;;;;;5031811;28;20053;-73
2022/08/05 09:44:34;;;;;;;4.28;2.05;;;33.30;47.80;;;;;;5030829;28;20113;-73
2022/08/05 09:47:16;;;;;;;11.45;2.25;;;33.30;46.50;;;;;;5030606;28;20044;-74
2022/08/05 09:49:52;;;;;;;5.07;2.03;;;33.30;46.20;;;;;;5032298;28;20033;-74
2022/08/05 09:52:33;;;;;;;6.75;2.17;;;33.40;46.50;;;;;;5030891;28;20422;-74
2022/08/05 09:55:02;;;;;;;13.18;2.95;;;33.40;46.10;;;;;;5032263;28;20453;-75
2022/08/05 09:57:37;;;;;;;10.80;2.47;;;33.30;47.10;;;;;;5031953;28;20108;-73
2022/08/05 10:00:11;;;;;;;4.63;2.33;;;33.40;46.00;;;;;;5031904;28;20028;-74
2022/08/05 10:02:43;;;;;;;8.65;2.10;;;33.40;46.10;;;;;;5032084;28;20036;-74
2022/08/05 10:05:13;;;;;;;4.37;1.83;;;33.40;46.00;;;;;;5031698;28;20030;-73
2022/08/05 10:08:02;;;;;;;4.25;2.13;;;33.40;47.00;;;;;;5031969;28;20272;-75
2022/08/05 10:10:36;;;;;;;3.95;1.80;;;33.50;46.00;;;;;;5031894;28;20045;-75
2022/08/05 10:13:03;;;;;;;5.38;2.15;;;33.60;45.70;;;;;;5031720;28;20464;-76
2022/08/05 10:15:36;;;;;;;7.35;2.30;;;33.70;45.40;;;;;;5031673;28;20034;-74
2022/08/05 10:18:07;;;;;;;3.88;1.92;;;33.70;45.50;;;;;;5031843;28;20501;-73
2022/08/05 10:20:44;;;;;;;4.05;2.03;;;33.70;45.80;;;;;;5032202;28;20048;-74
2022/08/05 10:23:16;;;;;;;8.13;2.10;;;33.80;45.70;;;;;;5032471;28;20030;-73
2022/08/05 10:25:42;;;;;;;5.68;2.10;;;33.80;46.30;;;;;;5035463;28;20378;-74
2022/08/05 10:28:08;;;;;;;8.90;2.03;;;33.80;45.80;;;;;;5035327;28;20017;-73
2022/08/05 10:30:35;;;;;;;10.27;1.73;;;33.90;46.90;;;;;;5034152;28;20033;-74
2022/08/05 10:33:02;;;;;;;6.38;1.85;;;33.90;47.40;;;;;;5035751;28;20025;-74
2022/08/05 10:35:28;;;;;;;7.13;2.00;;;33.90;48.70;;;;;;5035659;28;20029;-74
2022/08/05 10:37:55;;;;;;;7.18;2.00;;;34.00;48.40;;;;;;5035302;28;20066;-73
2022/08/05 10:40:37;;;;;;;6.40;1.98;;;34.00;47.30;;;;;;5035024;28;20025;-73
2022/08/05 10:43:21;;;;;;;8.43;1.88;;;34.10;46.40;;;;;;5035365;28;20041;-74
2022/08/05 10:45:57;;;;;;;5.38;1.48;;;34.10;46.00;;;;;;5035236;28;20052;-75
2022/08/05 10:48:35;;;;;;;4.25;1.77;;;34.20;45.30;;;;;;5035380;28;20029;-74
2022/08/05 10:51:06;;;;;;;6.32;2.05;;;34.20;44.70;;;;;;5035404;28;20034;-75
2022/08/05 10:53:37;;;;;;;5.28;1.70;;;34.30;45.00;;;;;;5035210;28;20140;-74
2022/08/05 10:56:06;;;;;;;5.13;2.05;;;34.40;43.60;;;;;;5035589;28;20034;-74
2022/08/05 10:58:34;;;;;;;4.65;1.90;;;34.40;43.30;;;;;;5035185;28;20017;-74
2022/08/05 11:01:03;;;;;;;4.63;1.30;;;34.40;43.20;;;;;;5034847;28;20487;-74
2022/08/05 11:03:29;;;;;;;2.63;1.58;;;34.50;43.00;;;;;;5033628;28;20049;-74
2022/08/05 11:06:03;;;;;;;3.35;1.88;;;34.50;42.80;;;;;;5034997;28;20434;-74
2022/08/05 11:08:28;;;;;;;6.75;2.10;;;34.50;42.90;;;;;;5035122;28;20423;-74
2022/08/05 11:10:55;;;;;;;7.50;1.85;;;34.60;43.60;;;;;;5034754;28;20072;-74
2022/08/05 11:13:40;;;;;;;11.50;1.77;;;34.60;43.10;;;;;;5034964;28;20049;-74
2022/08/05 11:16:22;;;;;;;8.10;1.98;;;34.70;43.50;;;;;;5034823;28;20036;-74
2022/08/05 11:19:24;;;;;;;8.32;1.60;;;34.70;44.00;;;;;;5035068;28;20037;-74
2022/08/05 11:21:50;;;;;;;3.67;1.75;;;34.70;45.10;;;;;;5034651;28;20474;-74
2022/08/05 11:24:16;;;;;;;6.40;2.00;;;34.70;44.20;;;;;;5034672;28;20032;-77
2022/08/05 11:26:45;;;;;;;5.68;1.48;;;34.60;43.60;;;;;;5034875;28;20065;-79
2022/08/05 11:29:39;;;;;;;3.55;1.40;;;34.60;44.30;;;;;;5034937;28;20064;-78
2022/08/05 11:32:28;;;;;;;8.40;1.55;;;34.70;45.60;;;;;;5034854;28;20057;-81
2022/08/05 11:34:56;;;;;;;7.07;1.63;;;34.70;46.00;;;;;;5033522;28;20032;-77
2022/08/05 11:37:58;;;;;;;3.10;1.80;;;34.70;45.20;;;;;;5034625;28;20028;-78
2022/08/05 11:41:00;;;;;;;7.75;1.70;;;34.70;45.50;;;;;;5034461;28;20028;-76
2022/08/05 11:43:26;;;;;;;2.97;1.50;;;34.80;45.80;;;;;;5033897;28;20046;-77
2022/08/05 11:45:52;;;;;;;5.05;1.90;;;34.80;44.60;;;;;;5034199;28;20029;-75
2022/08/05 11:48:18;;;;;;;5.47;1.60;;;34.80;44.30;;;;;;5034483;28;20018;-73
2022/08/05 11:50:45;;;;;;;8.88;2.05;;;34.80;44.30;;;;;;5034269;28;20087;-74
2022/08/05 11:53:11;;;;;;;3.70;1.70;;;34.80;44.30;;;;;;5034628;28;20022;-73
2022/08/05 11:55:51;;;;;;;8.27;2.13;;;34.90;43.90;;;;;;5033937;28;20018;-74
2022/08/05 11:58:34;;;;;;;11.77;1.77;;;34.90;44.10;;;;;;5034203;28;20111;-75
2022/08/05 12:01:08;;;;;;;7.28;1.52;;;35.00;44.60;;;;;;5034088;28;20602;-75
2022/08/05 12:03:55;;;;;;;3.22;1.60;;;35.00;44.00;;;;;;5032904;28;20029;-74
2022/08/05 12:06:28;;;;;;;7.07;2.38;;;35.00;43.70;;;;;;5034008;28;20439;-78
2022/08/05 12:08:57;;;;;;;5.03;1.73;;;34.90;44.60;;;;;;5033767;28;20352;-78
2022/08/05 12:11:26;;;;;;;3.88;1.50;;;34.90;45.30;;;;;;5034250;28;20540;-77
2022/08/05 12:13:57;;;;;;;3.70;2.40;;;34.90;45.20;;;;;;5034000;28;20033;-75
2022/08/05 12:16:25;;;;;;;5.65;3.22;;;34.90;44.40;;;;;;5033916;28;20049;-76
2022/08/05 12:18:52;;;;;;;3.47;1.38;;;34.90;44.60;;;;;;5033968;28;20025;-76
2022/08/05 12:21:21;;;;;;;4.40;1.60;;;35.00;44.40;;;;;;5033984;28;20061;-74
2022/08/05 12:24:06;;;;;;;3.30;1.80;;;35.10;44.50;;;;;;5034028;28;20463;-80
2022/08/05 12:26:37;;;;;;;9.60;1.58;;;35.10;44.10;;;;;;5032524;28;20038;-76
2022/08/05 12:29:25;;;;;;;2.47;1.30;;;35.20;44.30;;;;;;5033980;28;20026;-78
2022/08/05 12:31:59;;;;;;;4.25;1.60;;;35.20;43.60;;;;;;5033541;28;20108;-75
2022/08/05 12:34:35;;;;;;;6.28;1.63;;;35.20;43.40;;;;;;5033682;28;20159;-79
2022/08/05 12:37:09;;;;;;;8.13;1.83;;;35.10;42.60;;;;;;5033619;28;20045;-77
2022/08/05 12:39:36;;;;;;;2.55;1.30;;;35.20;43.60;;;;;;5033722;28;20028;-74
2022/08/05 12:42:02;;;;;;;5.95;1.20;;;35.20;43.20;;;;;;5033385;28;20045;-77
2022/08/05 12:44:28;;;;;;;4.13;1.40;;;35.20;43.60;;;;;;5033526;28;20096;-78
2022/08/05 12:46:55;;;;;;;6.18;1.60;;;35.30;43.40;;;;;;5033320;28;20556;-74
2022/08/05 12:49:21;;;;;;;5.57;1.20;;;35.30;43.90;;;;;;5033470;28;20434;-78
2022/08/05 12:51:54;;;;;;;6.25;1.98;;;35.30;43.00;;;;;;5033757;28;20103;-76
2022/08/05 12:54:25;;;;;;;3.95;1.33;;;35.40;42.60;;;;;;5033498;28;20028;-78
2022/08/05 12:56:59;;;;;;;5.80;1.48;;;35.40;42.70;;;;;;5033266;28;20041;-81
2022/08/05 12:59:29;;;;;;;7.43;1.58;;;35.40;43.80;;;;;;5033249;28;20041;-79